Mistral — TCCH — position and weather

sailwx.info

Track history (hours):
 
Tides and Currents Weather Stations Pressure Air Temp Water Temp Dewpoint Dewpoint Depression Visibility Wind Speed Wind Dir Waves Ship Positions

Mistral

Last reported at 2016-Aug-28 18:06 UTC. Time now 2016-Aug-28 20:35 UTC.
Position N 36°56' W 009°36'.

Length 130 m; draft 7.3 m.

Type: Cargo ship. MMSI: 271000615.

Date/timePositionNaut miles runAvg speedWind from/ knotsBaromVisibWave heightAir tempDewpointWater temp
2016-Aug-28 18:06N 36°56' W 009°36'35 9.8
2016-Aug-28 14:33N 37°30' W 009°45'49 9.9
2016-Aug-28 09:33N 38°18' W 009°59'1010.2
2016-Aug-28 08:33N 38°28' W 010°02'10 9.7
2016-Aug-28 07:33N 38°38' W 010°05'9 9.3
2016-Aug-28 06:33N 38°47' W 010°07'9 9.1
2016-Aug-28 05:33N 38°56' W 010°07'10 9.5
2016-Aug-28 04:32N 39°05' W 010°07'10 9.9
2016-Aug-28 03:33N 39°15' W 010°07'10 9.7
2016-Aug-28 02:33N 39°25' W 010°07'10 9.5
2016-Aug-28 01:33N 39°34' W 010°07'29 9.6
2016-Aug-27 22:33N 40°03' W 010°08'10 9.6
2016-Aug-27 21:33N 40°13' W 010°08'3210.0
2016-Aug-27 18:20N 40°45' W 010°07'18 9.8
2016-Aug-27 16:33N 41°03' W 010°07'6210.0
2016-Aug-27 10:24N 42°04' W 010°07'8 9.8
2016-Aug-27 09:32N 42°13' W 010°08'454 9.5
2016-Aug-25 09:32N 49°01' W 005°25'58 9.3
2016-Aug-25 03:19N 49°32' W 004°09'28 9.9
2016-Aug-25 00:27N 49°45' W 003°31'18 8.4
2016-Aug-24 22:15N 49°54' W 003°06'6 8.7
2016-Aug-24 21:33N 49°57' W 002°57'10 9.5
2016-Aug-24 20:30N 50°01' W 002°43'1511.1
2016-Aug-24 19:07N 50°06' W 002°20'6010.7
2016-Aug-24 13:33N 50°24' W 000°51'7 6.6
2016-Aug-24 12:33N 50°25' W 000°41'7 7.0
2016-Aug-24 11:33N 50°27' W 000°31'8 8.1
2016-Aug-24 10:33N 50°29' W 000°18'9 9.5
2016-Aug-24 09:33N 50°32' W 000°04'1110.6
2016-Aug-24 08:33N 50°35' E 000°12'41 9.7
2016-Aug-24 04:19N 50°54' E 001°09'6 7.4
2016-Aug-24 03:33N 50°58' E 001°16'7 7.0
2016-Aug-24 02:33N 51°03' E 001°24'9 8.7
2016-Aug-24 01:33N 51°08' E 001°35'1110.7
2016-Aug-24 00:33N 51°15' E 001°47'1212.0
2016-Aug-23 23:33N 51°26' E 001°56'1211.6
2016-Aug-23 22:33N 51°35' E 002°07'61 8.6
2016-Aug-23 15:30N 52°29' E 002°53'1010.2
2016-Aug-23 14:33N 52°38' E 002°60'1110.8
2016-Aug-23 13:33N 52°48' E 003°09'138 9.6
2016-Aug-22 23:10N 54°45' E 005°11'6 9.0
2016-Aug-22 22:33N 54°50' E 005°17'9 9.1
2016-Aug-22 21:33N 54°57' E 005°25'9 9.0
2016-Aug-22 20:33N 55°05' E 005°34'111 9.0
2016-Aug-22 08:10N 56°35' E 007°28'5 8.4
2016-Aug-22 07:33N 56°39' E 007°33'114 8.1
2016-Aug-21 17:29N 57°47' E 010°24'8 8.9
2016-Aug-21 16:33N 57°48' E 010°39'6 6.1
2016-Aug-21 15:32N 57°43' E 010°43'5 5.1
2016-Aug-21 14:32N 57°40' E 010°35'0 0.0
2016-Aug-21 08:08N 57°40' E 010°35'0 0.0
2016-Aug-21 06:26N 57°40' E 010°35'0 0.1
2016-Aug-21 05:25N 57°40' E 010°35'8 7.4
2016-Aug-21 04:22N 57°34' E 010°45'910.0
2016-Aug-21 03:29N 57°25' E 010°43'1010.5
2016-Aug-21 02:33N 57°15' E 010°43'1010.5
2016-Aug-21 01:33N 57°05' E 010°48'48 9.1
2016-Aug-20 20:19N 56°19' E 011°06'58 9.8
2016-Aug-20 14:27N 55°21' E 011°02'910.4
2016-Aug-20 13:33N 55°12' E 011°06'1111.5
2016-Aug-20 12:33N 55°01' E 011°02'1111.3
2016-Aug-20 11:33N 54°51' E 010°53'1110.6
2016-Aug-20 10:33N 54°41' E 010°58'1111.2
2016-Aug-20 09:33N 54°35' E 011°15'1110.9
2016-Aug-20 08:33N 54°30' E 011°32'1010.5
2016-Aug-20 07:33N 54°25' E 011°48'9 9.4
2016-Aug-20 06:33N 54°19' E 011°60'9 8.2
2016-Aug-20 05:30N 54°11' E 012°06'4 4.1
2016-Aug-20 04:33N 54°07' E 012°05'0 0.4
2016-Aug-20 03:33N 54°07' E 012°05'0 0.0
2016-Aug-20 02:33N 54°07' E 012°05'0 0.0
2016-Aug-20 01:33N 54°07' E 012°05'0 0.0
2016-Aug-20 00:33N 54°07' E 012°05'0 0.0
2016-Aug-19 23:31N 54°07' E 012°05'0 0.0
2016-Aug-19 22:33N 54°07' E 012°05'0 0.0
2016-Aug-19 21:33N 54°07' E 012°05'0 0.0
2016-Aug-19 20:33N 54°07' E 012°05'0 0.0
2016-Aug-19 19:31N 54°07' E 012°05'0 0.0
2016-Aug-19 18:33N 54°07' E 012°05'0 0.0
2016-Aug-19 17:33N 54°07' E 012°05'0 0.0
2016-Aug-19 16:33N 54°07' E 012°05'0 0.0
2016-Aug-19 15:33N 54°07' E 012°05'0 0.0
2016-Aug-19 14:33N 54°07' E 012°05'0 0.0
2016-Aug-19 13:33N 54°07' E 012°05'0 0.0
2016-Aug-19 12:33N 54°07' E 012°05'0 0.0
2016-Aug-19 11:33N 54°07' E 012°05'0 0.0
2016-Aug-19 10:33N 54°07' E 012°05'0 0.0
2016-Aug-19 09:33N 54°07' E 012°05'0 0.0
2016-Aug-19 08:33N 54°07' E 012°05'0 0.0
2016-Aug-19 07:33N 54°07' E 012°05'0 0.0
2016-Aug-19 06:33N 54°07' E 012°05'0 0.0
2016-Aug-19 05:30N 54°07' E 012°05'0 0.0
2016-Aug-19 04:32N 54°07' E 012°05'0 0.0
2016-Aug-19 03:33N 54°07' E 012°05'0 0.0
2016-Aug-19 02:34N 54°07' E 012°05'0 0.0
2016-Aug-19 01:34N 54°07' E 012°05'0 0.0
2016-Aug-19 00:33N 54°07' E 012°05'0 0.0
2016-Aug-18 23:33N 54°07' E 012°05'0 0.0
2016-Aug-18 22:33N 54°07' E 012°05'0 0.0
2016-Aug-18 21:32N 54°07' E 012°05'0 0.0
2016-Aug-18 20:33N 54°07' E 012°05'0 0.0
2016-Aug-18 19:31N 54°07' E 012°05'0 0.0
2016-Aug-18 18:26N 54°07' E 012°05'  
Track history (hours):
 
Tides and Currents Weather Stations Pressure Air Temp Water Temp Dewpoint Dewpoint Depression Visibility Wind Speed Wind Dir Waves Ship Positions

Mistral

Last reported at 2016-Aug-28 18:06 UTC. Time now 2016-Aug-28 20:35 UTC.
Position N 36°56' W 009°36'.

Length 130 m; draft 7.3 m.

Type: Cargo ship. MMSI: 271000615.

Date/timePositionNaut miles runAvg speedWind from/ knotsBaromVisibWave heightAir tempDewpointWater temp
2016-Aug-28 18:06N 36°56' W 009°36'35 9.8
2016-Aug-28 14:33N 37°30' W 009°45'49 9.9
2016-Aug-28 09:33N 38°18' W 009°59'1010.2
2016-Aug-28 08:33N 38°28' W 010°02'10 9.7
2016-Aug-28 07:33N 38°38' W 010°05'9 9.3
2016-Aug-28 06:33N 38°47' W 010°07'9 9.1
2016-Aug-28 05:33N 38°56' W 010°07'10 9.5
2016-Aug-28 04:32N 39°05' W 010°07'10 9.9
2016-Aug-28 03:33N 39°15' W 010°07'10 9.7
2016-Aug-28 02:33N 39°25' W 010°07'10 9.5
2016-Aug-28 01:33N 39°34' W 010°07'29 9.6
2016-Aug-27 22:33N 40°03' W 010°08'10 9.6
2016-Aug-27 21:33N 40°13' W 010°08'3210.0
2016-Aug-27 18:20N 40°45' W 010°07'18 9.8
2016-Aug-27 16:33N 41°03' W 010°07'6210.0
2016-Aug-27 10:24N 42°04' W 010°07'8 9.8
2016-Aug-27 09:32N 42°13' W 010°08'454 9.5
2016-Aug-25 09:32N 49°01' W 005°25'58 9.3
2016-Aug-25 03:19N 49°32' W 004°09'28 9.9
2016-Aug-25 00:27N 49°45' W 003°31'18 8.4
2016-Aug-24 22:15N 49°54' W 003°06'6 8.7
2016-Aug-24 21:33N 49°57' W 002°57'10 9.5
2016-Aug-24 20:30N 50°01' W 002°43'1511.1
2016-Aug-24 19:07N 50°06' W 002°20'6010.7
2016-Aug-24 13:33N 50°24' W 000°51'7 6.6
2016-Aug-24 12:33N 50°25' W 000°41'7 7.0
2016-Aug-24 11:33N 50°27' W 000°31'8 8.1
2016-Aug-24 10:33N 50°29' W 000°18'9 9.5
2016-Aug-24 09:33N 50°32' W 000°04'1110.6
2016-Aug-24 08:33N 50°35' E 000°12'41 9.7
2016-Aug-24 04:19N 50°54' E 001°09'6 7.4
2016-Aug-24 03:33N 50°58' E 001°16'7 7.0
2016-Aug-24 02:33N 51°03' E 001°24'9 8.7
2016-Aug-24 01:33N 51°08' E 001°35'1110.7
2016-Aug-24 00:33N 51°15' E 001°47'1212.0
2016-Aug-23 23:33N 51°26' E 001°56'1211.6
2016-Aug-23 22:33N 51°35' E 002°07'61 8.6
2016-Aug-23 15:30N 52°29' E 002°53'1010.2
2016-Aug-23 14:33N 52°38' E 002°60'1110.8
2016-Aug-23 13:33N 52°48' E 003°09'138 9.6
2016-Aug-22 23:10N 54°45' E 005°11'6 9.0
2016-Aug-22 22:33N 54°50' E 005°17'9 9.1
2016-Aug-22 21:33N 54°57' E 005°25'9 9.0
2016-Aug-22 20:33N 55°05' E 005°34'111 9.0
2016-Aug-22 08:10N 56°35' E 007°28'5 8.4
2016-Aug-22 07:33N 56°39' E 007°33'114 8.1
2016-Aug-21 17:29N 57°47' E 010°24'8 8.9
2016-Aug-21 16:33N 57°48' E 010°39'6 6.1
2016-Aug-21 15:32N 57°43' E 010°43'5 5.1
2016-Aug-21 14:32N 57°40' E 010°35'0 0.0
2016-Aug-21 08:08N 57°40' E 010°35'0 0.0
2016-Aug-21 06:26N 57°40' E 010°35'0 0.1
2016-Aug-21 05:25N 57°40' E 010°35'8 7.4
2016-Aug-21 04:22N 57°34' E 010°45'910.0
2016-Aug-21 03:29N 57°25' E 010°43'1010.5
2016-Aug-21 02:33N 57°15' E 010°43'1010.5
2016-Aug-21 01:33N 57°05' E 010°48'48 9.1
2016-Aug-20 20:19N 56°19' E 011°06'58 9.8
2016-Aug-20 14:27N 55°21' E 011°02'910.4
2016-Aug-20 13:33N 55°12' E 011°06'1111.5
2016-Aug-20 12:33N 55°01' E 011°02'1111.3
2016-Aug-20 11:33N 54°51' E 010°53'1110.6
2016-Aug-20 10:33N 54°41' E 010°58'1111.2
2016-Aug-20 09:33N 54°35' E 011°15'1110.9
2016-Aug-20 08:33N 54°30' E 011°32'1010.5
2016-Aug-20 07:33N 54°25' E 011°48'9 9.4
2016-Aug-20 06:33N 54°19' E 011°60'9 8.2
2016-Aug-20 05:30N 54°11' E 012°06'4 4.1
2016-Aug-20 04:33N 54°07' E 012°05'0 0.4
2016-Aug-20 03:33N 54°07' E 012°05'0 0.0
2016-Aug-20 02:33N 54°07' E 012°05'0 0.0
2016-Aug-20 01:33N 54°07' E 012°05'0 0.0
2016-Aug-20 00:33N 54°07' E 012°05'0 0.0
2016-Aug-19 23:31N 54°07' E 012°05'0 0.0
2016-Aug-19 22:33N 54°07' E 012°05'0 0.0
2016-Aug-19 21:33N 54°07' E 012°05'0 0.0
2016-Aug-19 20:33N 54°07' E 012°05'0 0.0
2016-Aug-19 19:31N 54°07' E 012°05'0 0.0
2016-Aug-19 18:33N 54°07' E 012°05'0 0.0
2016-Aug-19 17:33N 54°07' E 012°05'0 0.0
2016-Aug-19 16:33N 54°07' E 012°05'0 0.0
2016-Aug-19 15:33N 54°07' E 012°05'0 0.0
2016-Aug-19 14:33N 54°07' E 012°05'0 0.0
2016-Aug-19 13:33N 54°07' E 012°05'0 0.0
2016-Aug-19 12:33N 54°07' E 012°05'0 0.0
2016-Aug-19 11:33N 54°07' E 012°05'0 0.0
2016-Aug-19 10:33N 54°07' E 012°05'0 0.0
2016-Aug-19 09:33N 54°07' E 012°05'0 0.0
2016-Aug-19 08:33N 54°07' E 012°05'0 0.0
2016-Aug-19 07:33N 54°07' E 012°05'0 0.0
2016-Aug-19 06:33N 54°07' E 012°05'0 0.0
2016-Aug-19 05:30N 54°07' E 012°05'0 0.0
2016-Aug-19 04:32N 54°07' E 012°05'0 0.0
2016-Aug-19 03:33N 54°07' E 012°05'0 0.0
2016-Aug-19 02:34N 54°07' E 012°05'0 0.0
2016-Aug-19 01:34N 54°07' E 012°05'0 0.0
2016-Aug-19 00:33N 54°07' E 012°05'0 0.0
2016-Aug-18 23:33N 54°07' E 012°05'0 0.0
2016-Aug-18 22:33N 54°07' E 012°05'0 0.0
2016-Aug-18 21:32N 54°07' E 012°05'0 0.0
2016-Aug-18 20:33N 54°07' E 012°05'0 0.0
2016-Aug-18 19:31N 54°07' E 012°05'0 0.0
2016-Aug-18 18:26N 54°07' E 012°05'  

Dump ship's entire track history